Healdsburg, CA

4:18 PM PDT on September 30, 2014 (GMT -0700)
Healdsburg | Change Station
CLOSE
Current Station
Personal Weather Station
Location: Healdsburg, CA
Elevation: 172 ft
Nearby Weather Stations

Elev 172 ft 38.63 °N, 122.87 °W | Updated 8 seconds ago

Clear
Clear
83.4 °F
Feels Like 83 °F
N
5.0
Wind Variable Wind from West
Gusts 9.0 mph

Today
High -- | Low -- °F
--% Chance of Precip.
Yesterday
High -- | Low -- °F
Precip. -- in
7:06 AM 6:55 PM
Waxing Crescent, 41% visible
Pressure 29.81 in
Visibility 10.0 miles
Clouds Few 5000 ft
Heat Index 83 °F
Dew Point 57 °F
Humidity 41%
Rainfall 0.00 in
Snow Depth 0 in , 0 in , 0 in
UV 3 out of 12
Pollen 2.80 out of 12
Air Quality Not available.
Flu Activity Not available.
METAR KSTS 302253Z 21008KT 10SM FEW050 28/13 A2983 RMK AO2 SLP095 T02780128

More Conditions Fewer Conditions

Pressure 29.81 in
Visibility 10.0 miles
Clouds Few 5000 ft
Heat Index 83 °F
Dew Point 57 °F
Humidity 41%
Rainfall 0.00 in
Snow Depth 0 in , 0 in , 0 in
UV 3 out of 12
Pollen 2.80 out of 12
Air Quality Not available.
Flu Activity Not available.
METAR KSTS 302253Z 21008KT 10SM FEW050 28/13 A2983 RMK AO2 SLP095 T02780128

More Conditions Fewer Conditions

10-Day Weather Forecast

Almanac

Astronomy

Sep. 30, 2014 Rise Set
Actual Time 7:06 AM PDT 6:55 PM PDT
Civil Twilight 6:40 AM PDT 7:22 PM PDT
Nautical Twilight 6:09 AM PDT 7:52 PM PDT
Astronomical Twilight 5:38 AM PDT 8:23 PM PDT
Moon 1:16 PM PDT 11:34 PM PDT
Length of Visible Light 12h 42m
Length of Day
11h 49m
Tomorrow will be 2m 29s shorter.
Waxing Crescent, 41% of the Moon is Illuminated
Today
Waxing Crescent
Oct 1
First Quarter
Oct 8
Full
Oct 15
Last Quarter
Oct 23
New

Today's Extremes

State Highs State Lows

Community

WunderPhotos

Upload Photos

1,757,768 photos uploaded!

Nearby

Air Quality

  Air Quality AQ Index Pollutant
Tuesday Good
PM2.5
Wednesday Good
PM2.5
Thursday Moderate
PM2.5
Friday Moderate
PM2.5
Saturday Moderate
PM2.5
Sunday Moderate
PM2.5

Snow Depth

Station Depth Elevation
Summit Meadow 0 in 9122 ft
Tahoe City Cross 0 in 6750 ft
Monitor Pass 0 in 8350 ft
CSS Lab 1 in 6900 ft
Adin Mountain 0 in 6200 ft

Earthquake Activity

City Distance Mag. Time & Date
East Foothills, California 99 miles 2.6 3:34 PM PDT
2014-09-30
American Canyon, California 42 miles 2.5 12:17 AM PDT
2014-09-29
Minimum magnitude displayed is 2.5.

Coastal Water Temperatures

Place Temperature
Point Reyes, CA 60.1 °F
Arena Cove, CA 57.0 °F
San Francisco, CA 64.9 °F
Richmond, CA 69.1 °F

Nearby Weather Stations